createdAt,value
2022-09-28T00:02:24.186Z,19.64
2022-09-28T00:04:51.093Z,19.54
2022-09-28T00:07:17.825Z,19.49
2022-09-28T00:09:44.679Z,19.45
2022-09-28T00:12:11.534Z,19.44
2022-09-28T00:14:38.365Z,19.36
2022-09-28T00:17:05.142Z,19.33
2022-09-28T00:19:32.076Z,19.28
2022-09-28T00:21:58.772Z,19.23
2022-09-28T00:24:27.754Z,19.21
2022-09-28T00:26:56.890Z,19.20
2022-09-28T00:29:25.436Z,19.19
2022-09-28T00:31:54.528Z,19.16
2022-09-28T00:34:21.602Z,19.12
2022-09-28T00:36:48.747Z,19.11
2022-09-28T00:39:16.883Z,19.19
2022-09-28T00:41:44.591Z,19.15
2022-09-28T00:44:26.505Z,19.12
2022-09-28T00:46:58.678Z,19.04
2022-09-28T00:49:34.745Z,18.99
2022-09-28T00:52:05.103Z,18.99
2022-09-28T00:54:32.331Z,18.94
2022-09-28T00:57:01.084Z,18.88
2022-09-28T00:59:28.089Z,18.90
2022-09-28T01:01:54.997Z,18.89
2022-09-28T01:04:25.896Z,18.86
2022-09-28T01:06:56.794Z,18.89
2022-09-28T01:09:26.100Z,18.98
2022-09-28T01:11:53.061Z,19.05
2022-09-28T01:14:20.246Z,19.10
2022-09-28T01:16:59.007Z,19.10
2022-09-28T01:19:56.767Z,19.19
2022-09-28T01:22:53.726Z,19.18
2022-09-28T01:25:47.803Z,19.21
2022-09-28T01:28:17.559Z,19.20
2022-09-28T01:30:51.281Z,19.14
2022-09-28T01:33:24.300Z,19.10
2022-09-28T01:36:04.547Z,19.00
2022-09-28T01:38:38.236Z,18.97
2022-09-28T01:41:06.579Z,18.85
2022-09-28T01:43:39.241Z,18.75
2022-09-28T01:46:21.476Z,18.67
2022-09-28T01:48:56.698Z,18.58
2022-09-28T01:51:38.860Z,18.54
2022-09-28T01:54:21.205Z,18.47
2022-09-28T01:56:55.834Z,18.42
2022-09-28T01:59:30.117Z,18.51
2022-09-28T02:02:33.491Z,18.48
2022-09-28T02:05:18.171Z,18.39
2022-09-28T02:07:56.364Z,18.28
2022-09-28T02:10:28.439Z,18.21
2022-09-28T02:13:07.067Z,18.08
2022-09-28T02:15:58.571Z,17.94
2022-09-28T02:18:25.429Z,17.91
2022-09-28T02:21:01.506Z,17.95
2022-09-28T02:23:30.573Z,17.97
2022-09-28T02:26:09.217Z,17.91
2022-09-28T02:28:36.275Z,17.84
2022-09-28T02:31:03.166Z,17.84
2022-09-28T02:33:36.463Z,17.75
2022-09-28T02:36:03.798Z,17.71
2022-09-28T02:38:31.984Z,17.74
2022-09-28T02:41:31.561Z,17.83
2022-09-28T02:44:18.578Z,17.84
2022-09-28T02:46:54.201Z,17.85
2022-09-28T02:49:23.832Z,17.91
2022-09-28T02:52:26.897Z,17.96
2022-09-28T02:55:24.698Z,17.91
2022-09-28T02:58:19.168Z,17.94
2022-09-28T03:01:21.544Z,17.96
2022-09-28T03:04:14.178Z,17.84
2022-09-28T03:07:04.510Z,17.83
2022-09-28T03:09:48.373Z,17.90
2022-09-28T03:12:19.096Z,17.84
2022-09-28T03:14:46.055Z,17.79
2022-09-28T03:17:12.879Z,17.69
2022-09-28T03:19:39.861Z,17.71
2022-09-28T03:22:06.658Z,17.75
2022-09-28T03:24:33.600Z,17.77
2022-09-28T03:27:00.523Z,17.68
2022-09-28T03:29:27.259Z,17.62
2022-09-28T03:31:54.107Z,17.49
2022-09-28T03:34:21.175Z,17.39
2022-09-28T03:36:47.917Z,17.39
2022-09-28T03:39:14.748Z,17.30
2022-09-28T03:41:41.764Z,17.24
2022-09-28T03:44:08.457Z,17.26
2022-09-28T03:46:35.202Z,17.26
2022-09-28T03:49:02.017Z,17.48
2022-09-28T03:51:28.872Z,17.65
2022-09-28T03:53:55.664Z,17.75
2022-09-28T03:56:22.431Z,17.83
2022-09-28T03:58:49.238Z,17.95
2022-09-28T04:01:17.493Z,18.06
2022-09-28T04:03:45.553Z,18.22
2022-09-28T04:06:12.653Z,18.25
2022-09-28T04:08:39.846Z,18.33
2022-09-28T04:11:06.982Z,18.08
2022-09-28T04:13:33.755Z,17.76
2022-09-28T04:16:01.550Z,17.71
2022-09-28T04:18:29.253Z,17.62
2022-09-28T04:21:07.891Z,17.58
2022-09-28T04:23:38.945Z,17.61
2022-09-28T04:26:08.178Z,17.65
2022-09-28T04:28:35.276Z,17.69
2022-09-28T04:31:02.014Z,17.61
2022-09-28T04:33:28.718Z,17.58
2022-09-28T04:35:55.544Z,17.59
2022-09-28T04:38:35.822Z,17.68
2022-09-28T04:41:08.561Z,18.01
2022-09-28T04:43:35.353Z,18.23
2022-09-28T04:46:03.291Z,18.42
2022-09-28T04:48:30.163Z,18.73
2022-09-28T04:50:58.724Z,19.25
2022-09-28T04:53:26.829Z,19.41
2022-09-28T04:56:05.838Z,19.54
2022-09-28T04:58:35.175Z,19.78
2022-09-28T05:01:05.064Z,19.67
2022-09-28T05:03:32.038Z,19.33
2022-09-28T05:05:59.005Z,19.06
2022-09-28T05:08:26.822Z,18.99
2022-09-28T05:11:06.213Z,18.78
2022-09-28T05:13:34.341Z,18.76
2022-09-28T05:16:05.257Z,18.70
2022-09-28T05:18:32.556Z,18.73
2022-09-28T05:20:59.385Z,18.67
2022-09-28T05:23:26.221Z,18.62
2022-09-28T05:25:53.555Z,18.60
2022-09-28T05:28:25.135Z,18.61
2022-09-28T05:30:52.178Z,18.66
2022-09-28T05:33:19.077Z,18.71
2022-09-28T05:35:48.738Z,18.73
2022-09-28T05:38:17.958Z,18.73
2022-09-28T05:40:44.841Z,18.74
2022-09-28T05:43:11.653Z,18.77
2022-09-28T05:45:38.522Z,18.82
2022-09-28T05:48:05.294Z,18.86
2022-09-28T05:50:32.048Z,18.97
2022-09-28T05:53:07.291Z,18.92
2022-09-28T05:55:35.521Z,18.95
2022-09-28T05:58:05.423Z,19.03
2022-09-28T06:00:33.428Z,19.13
2022-09-28T06:03:05.480Z,19.20
2022-09-28T06:05:36.478Z,19.11
2022-09-28T06:08:04.602Z,19.19
2022-09-28T06:10:31.662Z,19.10
2022-09-28T06:12:58.808Z,19.22
2022-09-28T06:15:28.171Z,19.28
2022-09-28T06:17:58.737Z,19.36
2022-09-28T06:20:27.098Z,19.38
2022-09-28T06:22:54.503Z,19.41
2022-09-28T06:25:22.890Z,19.46
2022-09-28T06:28:11.033Z,19.72
2022-09-28T06:30:38.655Z,19.95
2022-09-28T06:33:07.627Z,19.88
2022-09-28T06:35:35.714Z,20.09
2022-09-28T06:38:02.758Z,20.29
2022-09-28T06:40:29.766Z,20.53
2022-09-28T06:43:07.385Z,20.93
2022-09-28T06:45:34.153Z,21.08
2022-09-28T06:48:01.496Z,21.00
2022-09-28T06:50:32.037Z,21.21
2022-09-28T06:53:00.072Z,21.39
2022-09-28T06:55:27.094Z,21.37
2022-09-28T06:58:02.127Z,21.28
2022-09-28T07:00:30.706Z,21.18
2022-09-28T07:02:57.455Z,21.42
2022-09-28T07:05:24.589Z,21.47
2022-09-28T07:07:51.340Z,21.27
2022-09-28T07:10:18.199Z,21.23
2022-09-28T07:12:45.598Z,21.43
2022-09-28T07:15:12.313Z,21.67
2022-09-28T07:18:00.246Z,21.86
2022-09-28T07:20:30.116Z,22.05
2022-09-28T07:23:10.266Z,22.10
2022-09-28T07:25:43.150Z,22.04
2022-09-28T07:28:09.901Z,21.97
2022-09-28T07:30:36.702Z,21.94
2022-09-28T07:33:05.332Z,22.10
2022-09-28T07:35:32.601Z,22.37
2022-09-28T07:38:00.913Z,22.59
2022-09-28T07:40:28.573Z,22.33
2022-09-28T07:42:55.395Z,22.16
2022-09-28T07:45:22.863Z,22.47
2022-09-28T07:47:50.481Z,22.13
2022-09-28T07:50:17.691Z,22.14
2022-09-28T07:52:44.438Z,22.52
2022-09-28T07:55:11.227Z,22.84
2022-09-28T07:57:37.981Z,22.98
2022-09-28T08:00:05.282Z,23.12
2022-09-28T08:02:32.141Z,22.75
2022-09-28T08:04:58.951Z,22.53
2022-09-28T08:07:25.840Z,22.75
2022-09-28T08:09:53.072Z,23.03
2022-09-28T08:12:20.718Z,23.30
2022-09-28T08:14:48.430Z,23.35
2022-09-28T08:17:15.400Z,23.23
2022-09-28T08:19:42.172Z,23.56
2022-09-28T08:22:08.954Z,22.96
2022-09-28T08:24:35.809Z,22.99
2022-09-28T08:27:02.559Z,23.04
2022-09-28T08:29:29.335Z,22.63
2022-09-28T08:32:00.756Z,22.78
2022-09-28T08:34:28.170Z,22.97
2022-09-28T08:36:58.257Z,23.17
2022-09-28T08:39:25.044Z,23.33
2022-09-28T08:42:30.754Z,23.11
2022-09-28T08:45:04.787Z,23.05
2022-09-28T09:25:28.133Z,24.92
2022-09-28T09:28:25.991Z,25.06
2022-09-28T09:31:22.659Z,25.41
2022-09-28T09:34:16.582Z,24.40
2022-09-28T09:36:46.504Z,24.56
2022-09-28T09:39:51.535Z,24.29
2022-09-28T09:42:32.819Z,24.66
2022-09-28T09:45:09.523Z,24.90
2022-09-28T09:47:43.936Z,24.88
2022-09-28T09:50:27.027Z,25.24
2022-09-28T09:53:37.699Z,25.51
2022-09-28T09:56:11.347Z,24.94
2022-09-28T09:58:44.916Z,24.52
2022-09-28T10:01:14.686Z,24.68
2022-09-28T10:03:44.809Z,24.99
2022-09-28T10:06:19.791Z,24.29
2022-09-28T10:08:52.694Z,24.53
2022-09-28T10:11:26.148Z,24.53
2022-09-28T10:13:53.286Z,24.88
2022-09-28T10:16:20.308Z,24.95
2022-09-28T10:18:48.230Z,25.21
2022-09-28T10:21:18.522Z,25.27
2022-09-28T10:23:48.118Z,25.78
2022-09-28T10:26:28.581Z,26.44
2022-09-28T10:29:01.705Z,25.81
2022-09-28T10:31:37.394Z,25.50
2022-09-28T10:34:08.810Z,24.34
2022-09-28T10:37:05.127Z,23.77
2022-09-28T10:39:35.876Z,23.68
2022-09-28T10:42:07.820Z,23.85
2022-09-28T10:44:43.290Z,24.55
2022-09-28T10:47:15.435Z,24.56
2022-09-28T10:49:47.305Z,24.78
2022-09-28T10:52:32.829Z,24.47
2022-09-28T10:55:00.082Z,24.76
2022-09-28T10:57:36.119Z,24.90
2022-09-28T11:00:05.282Z,25.08
2022-09-28T11:02:37.235Z,24.95
2022-09-28T11:05:06.858Z,24.20
2022-09-28T11:07:44.606Z,24.50
2022-09-28T11:10:21.769Z,25.01
2022-09-28T11:12:50.195Z,25.31
2022-09-28T11:15:22.744Z,25.40
2022-09-28T11:17:49.470Z,25.07
2022-09-28T11:20:27.762Z,24.55
2022-09-28T11:23:18.082Z,24.48
2022-09-28T11:26:06.508Z,24.27
2022-09-28T11:28:39.335Z,23.99
2022-09-28T11:31:08.201Z,23.92
2022-09-28T11:33:40.063Z,23.71
2022-09-28T11:36:23.123Z,23.45
2022-09-28T11:39:05.130Z,23.51
2022-09-28T11:41:53.738Z,23.48
2022-09-28T11:44:39.831Z,23.63
2022-09-28T11:47:28.093Z,23.61
2022-09-28T11:50:05.632Z,23.79
2022-09-28T11:52:46.710Z,24.01
2022-09-28T11:55:45.514Z,24.30
2022-09-28T11:58:20.664Z,24.98
2022-09-28T12:00:52.247Z,25.31
2022-09-28T12:03:25.541Z,24.63
2022-09-28T12:06:05.347Z,23.78
2022-09-28T12:08:36.858Z,23.98
2022-09-28T12:11:17.910Z,24.02
2022-09-28T12:13:48.118Z,24.09
2022-09-28T12:16:53.495Z,23.99
2022-09-28T12:19:36.592Z,23.81
2022-09-28T12:22:11.693Z,23.88
2022-09-28T12:24:49.243Z,23.49
2022-09-28T12:27:40.329Z,23.61
2022-09-28T12:30:20.356Z,23.67
2022-09-28T12:33:07.893Z,23.84
2022-09-28T12:35:59.140Z,23.87
2022-09-28T12:39:08.485Z,23.79
2022-09-28T12:42:06.423Z,23.60
2022-09-28T12:44:39.121Z,23.82
2022-09-28T12:47:24.409Z,23.79
2022-09-28T12:53:11.090Z,23.87
2022-09-28T12:55:58.221Z,23.94
2022-09-28T12:58:38.731Z,24.03
2022-09-28T13:01:24.241Z,23.84
2022-09-28T13:04:13.901Z,23.58
2022-09-28T13:07:09.398Z,23.62
2022-09-28T13:10:04.181Z,23.90
2022-09-28T13:12:48.455Z,23.85
2022-09-28T13:15:18.148Z,23.83
2022-09-28T13:18:23.968Z,23.87
2022-09-28T13:20:50.721Z,24.16
2022-09-28T13:23:28.933Z,24.10
2022-09-28T13:26:07.232Z,23.96
2022-09-28T13:28:36.175Z,24.11
2022-09-28T13:31:04.615Z,24.37
2022-09-28T13:33:34.154Z,24.01
2022-09-28T13:36:01.235Z,23.72
2022-09-28T13:38:27.918Z,23.63
2022-09-28T13:41:04.056Z,23.82
2022-09-28T13:43:45.685Z,24.01
2022-09-28T13:46:35.273Z,24.15
2022-09-28T13:49:26.601Z,24.26
2022-09-28T13:51:59.581Z,24.31
2022-09-28T13:54:57.143Z,24.10
2022-09-28T13:57:51.761Z,23.94
2022-09-28T14:00:34.804Z,23.76
2022-09-28T14:03:25.535Z,23.64
2022-09-28T14:06:10.679Z,23.71
2022-09-28T14:09:04.724Z,23.57
2022-09-28T14:11:34.300Z,23.59
2022-09-28T14:14:02.251Z,23.57
2022-09-28T14:16:31.348Z,23.60
2022-09-28T14:19:03.314Z,23.75
2022-09-28T14:21:58.938Z,23.82
2022-09-28T14:24:54.546Z,23.91
2022-09-28T14:27:58.297Z,23.89
2022-09-28T14:30:44.216Z,23.93
2022-09-28T14:33:26.692Z,23.97
2022-09-28T14:35:58.833Z,23.87
2022-09-28T14:38:47.351Z,23.83
2022-09-28T14:41:17.122Z,23.72
2022-09-28T14:43:43.960Z,23.65
2022-09-28T14:46:10.823Z,23.42
2022-09-28T14:48:52.251Z,23.23
2022-09-28T14:51:24.919Z,23.06
2022-09-28T14:53:56.513Z,22.83
2022-09-28T14:56:27.014Z,22.81
2022-09-28T14:58:58.277Z,22.74
2022-09-28T15:01:26.480Z,22.75
2022-09-28T15:03:59.627Z,22.71
2022-09-28T15:06:26.609Z,22.59
2022-09-28T15:08:53.421Z,22.59
2022-09-28T15:11:26.600Z,22.61
2022-09-28T15:14:07.716Z,22.51
2022-09-28T15:16:34.666Z,22.36
2022-09-28T15:19:22.781Z,22.32
2022-09-28T15:21:50.622Z,22.28
2022-09-28T15:24:31.045Z,22.21
2022-09-28T15:26:59.621Z,22.07
2022-09-28T15:29:26.711Z,21.97
2022-09-28T15:31:54.626Z,21.98
2022-09-28T15:34:32.511Z,21.98
2022-09-28T15:36:59.383Z,21.74
2022-09-28T15:39:32.359Z,21.59
2022-09-28T15:42:00.227Z,21.52
2022-09-28T15:44:38.703Z,21.49
2022-09-28T15:47:10.295Z,21.41
2022-09-28T15:49:39.837Z,21.31
2022-09-28T15:52:08.204Z,21.25
2022-09-28T15:54:43.709Z,21.26
2022-09-28T15:57:39.038Z,21.32
2022-09-28T16:00:27.677Z,21.35
2022-09-28T16:03:04.319Z,21.29
2022-09-28T16:05:41.752Z,21.23
2022-09-28T16:09:01.026Z,21.06
2022-09-28T16:11:37.413Z,20.71
2022-09-28T16:14:18.774Z,20.67
2022-09-28T16:16:49.399Z,20.71
2022-09-28T16:19:24.927Z,20.61
2022-09-28T16:21:53.554Z,20.57
2022-09-28T16:24:22.650Z,20.52
2022-09-28T16:27:01.869Z,20.37
2022-09-28T16:29:38.126Z,20.45
2022-09-28T16:32:25.153Z,20.34
2022-09-28T16:35:16.367Z,20.23
2022-09-28T16:37:43.285Z,20.21
2022-09-28T16:40:11.674Z,20.18
2022-09-28T16:42:48.151Z,20.11
2022-09-28T16:45:22.806Z,19.96
2022-09-28T16:47:50.339Z,19.75
2022-09-28T16:50:17.316Z,19.58
2022-09-28T16:52:44.141Z,19.53
2022-09-28T16:55:35.799Z,19.52
2022-09-28T16:57:58.320Z,19.46
2022-09-28T17:00:26.723Z,19.33
2022-09-28T17:02:53.785Z,19.35
2022-09-28T17:05:20.933Z,19.18
2022-09-28T17:08:03.063Z,18.99
2022-09-28T17:11:15.974Z,18.87
2022-09-28T17:13:41.457Z,18.62
2022-09-28T17:16:21.040Z,18.47
2022-09-28T17:18:52.113Z,18.15
2022-09-28T17:21:20.704Z,17.93
2022-09-28T17:23:49.579Z,17.71
2022-09-28T17:26:28.002Z,17.50
2022-09-28T17:28:54.980Z,17.39
2022-09-28T17:31:22.009Z,17.28
2022-09-28T17:33:48.948Z,17.24
2022-09-28T17:36:18.526Z,17.21
2022-09-28T17:38:49.497Z,17.24
2022-09-28T17:41:21.113Z,17.16
2022-09-28T17:43:48.300Z,17.14
2022-09-28T17:46:27.318Z,17.36
2022-09-28T17:48:55.094Z,17.41
2022-09-28T17:51:21.907Z,17.47
2022-09-28T17:53:48.993Z,17.57
2022-09-28T17:56:15.811Z,17.68
2022-09-28T17:58:42.687Z,17.73
2022-09-28T18:01:10.089Z,17.79
2022-09-28T18:03:36.899Z,17.85
2022-09-28T18:06:11.495Z,17.93
2022-09-28T18:08:38.431Z,18.02
2022-09-28T18:11:05.391Z,17.13
2022-09-28T18:13:32.542Z,16.54
2022-09-28T18:15:59.410Z,16.30
2022-09-28T18:18:26.535Z,15.87
2022-09-28T18:20:53.499Z,15.78
2022-09-28T18:23:20.559Z,15.55
2022-09-28T18:25:47.681Z,15.38
2022-09-28T18:28:15.108Z,15.22
2022-09-28T18:30:44.588Z,15.20
2022-09-28T18:33:13.702Z,15.19
2022-09-28T18:35:41.703Z,15.14
2022-09-28T18:38:08.732Z,15.17
2022-09-28T18:40:36.189Z,15.15
2022-09-28T18:43:03.909Z,15.11
2022-09-28T18:45:30.730Z,14.96
2022-09-28T18:47:58.077Z,14.90
2022-09-28T18:50:25.009Z,14.79
2022-09-28T18:52:51.856Z,14.70
2022-09-28T18:55:18.806Z,14.71
2022-09-28T18:57:45.940Z,14.69
2022-09-28T19:00:13.448Z,14.77
2022-09-28T19:02:41.612Z,14.81
2022-09-28T19:05:08.652Z,14.83
2022-09-28T19:07:35.484Z,14.93
2022-09-28T19:10:02.417Z,15.02
2022-09-28T19:12:29.405Z,15.06
2022-09-28T19:14:56.234Z,14.97
2022-09-28T19:17:23.083Z,14.79
2022-09-28T19:19:49.913Z,14.72
2022-09-28T19:22:16.727Z,14.67
2022-09-28T19:24:43.890Z,14.64
2022-09-28T19:27:10.813Z,14.61
2022-09-28T19:29:37.585Z,14.63
2022-09-28T19:32:04.447Z,14.67
2022-09-28T19:34:31.648Z,14.70
2022-09-28T19:36:58.532Z,14.74
2022-09-28T19:39:25.383Z,14.88
2022-09-28T19:41:52.249Z,14.99
2022-09-28T19:44:25.357Z,14.97
2022-09-28T19:46:54.788Z,15.10
2022-09-28T19:49:22.983Z,15.08
2022-09-28T19:52:13.836Z,15.08
2022-09-28T19:54:38.354Z,14.88
2022-09-28T19:57:05.562Z,14.81
2022-09-28T19:59:32.356Z,14.92
2022-09-28T20:01:59.460Z,15.16
2022-09-28T20:04:29.423Z,15.42
2022-09-28T20:06:56.291Z,15.67
2022-09-28T20:09:25.387Z,15.94
2022-09-28T20:11:52.202Z,16.18
2022-09-28T20:14:19.130Z,16.34
2022-09-28T20:16:46.210Z,16.43
2022-09-28T20:19:13.157Z,16.49
2022-09-28T20:21:39.870Z,16.64
2022-09-28T20:24:06.739Z,16.41
2022-09-28T20:26:33.722Z,15.25
2022-09-28T20:29:00.575Z,15.14
2022-09-28T20:31:27.530Z,15.30
2022-09-28T20:33:54.387Z,15.57
2022-09-28T20:36:23.556Z,15.71
2022-09-28T20:38:52.442Z,15.72
2022-09-28T20:41:21.724Z,15.63
2022-09-28T20:43:52.668Z,15.43
2022-09-28T20:46:19.822Z,15.41
2022-09-28T20:48:46.660Z,15.69
2022-09-28T20:51:15.891Z,15.85
2022-09-28T20:53:46.797Z,15.83
2022-09-28T20:56:18.789Z,15.58
2022-09-28T20:58:45.711Z,15.67
2022-09-28T21:01:22.007Z,15.87
2022-09-28T21:03:51.774Z,16.05
2022-09-28T21:06:20.487Z,16.09
2022-09-28T21:08:47.941Z,15.89
2022-09-28T21:11:16.479Z,16.10
2022-09-28T21:13:43.234Z,16.11
2022-09-28T21:16:11.667Z,16.08
2022-09-28T21:18:42.268Z,16.24
2022-09-28T21:21:12.681Z,16.22
2022-09-28T21:23:40.259Z,16.12
2022-09-28T21:26:10.126Z,16.06
2022-09-28T21:28:38.149Z,16.12
2022-09-28T21:31:07.248Z,16.14
2022-09-28T21:33:34.352Z,16.16
2022-09-28T21:36:05.819Z,16.09
2022-09-28T21:38:33.095Z,16.18
2022-09-28T21:41:00.807Z,16.40
2022-09-28T21:43:29.644Z,16.51
2022-09-28T21:45:57.371Z,16.59
2022-09-28T21:48:26.316Z,16.23
2022-09-28T21:50:57.724Z,15.76
2022-09-28T21:53:26.567Z,15.99
2022-09-28T21:55:53.999Z,16.29
2022-09-28T21:58:22.030Z,16.39
2022-09-28T22:00:55.623Z,16.42
2022-09-28T22:03:24.967Z,16.50
2022-09-28T22:05:51.719Z,16.59
2022-09-28T22:08:19.376Z,16.62
2022-09-28T22:10:57.037Z,16.71
2022-09-28T22:13:23.810Z,16.77
2022-09-28T22:15:54.919Z,16.90
2022-09-28T22:18:21.729Z,17.08
2022-09-28T22:20:48.432Z,17.14
2022-09-28T22:23:15.185Z,17.21
2022-09-28T22:25:42.005Z,17.24
2022-09-28T22:28:29.039Z,17.29
2022-09-28T22:30:56.892Z,17.35
2022-09-28T22:33:24.566Z,17.41
2022-09-28T22:35:51.519Z,17.44
2022-09-28T22:38:19.482Z,17.41
2022-09-28T22:40:49.838Z,17.43
2022-09-28T22:43:17.527Z,17.26
2022-09-28T22:45:45.308Z,17.22
2022-09-28T22:48:12.566Z,17.23
2022-09-28T22:50:39.570Z,17.10
2022-09-28T22:53:06.747Z,16.51
2022-09-28T22:55:33.528Z,16.14
2022-09-28T22:58:02.958Z,15.95
2022-09-28T23:00:29.971Z,16.00
2022-09-28T23:02:56.746Z,16.24
2022-09-28T23:05:23.795Z,16.48
2022-09-28T23:07:50.636Z,16.57
2022-09-28T23:10:17.416Z,16.64
2022-09-28T23:12:44.205Z,16.71
2022-09-28T23:15:11.347Z,16.71
2022-09-28T23:17:38.174Z,16.15
2022-09-28T23:20:05.387Z,16.25
2022-09-28T23:22:32.188Z,16.42
2022-09-28T23:24:59.317Z,16.64
2022-09-28T23:27:26.062Z,16.50
2022-09-28T23:29:52.904Z,16.20
2022-09-28T23:32:19.761Z,15.93
2022-09-28T23:34:46.496Z,15.84
2022-09-28T23:37:13.387Z,15.86
2022-09-28T23:39:40.191Z,15.71
2022-09-28T23:42:06.926Z,15.36
2022-09-28T23:44:33.768Z,15.33
2022-09-28T23:47:00.572Z,15.32
2022-09-28T23:49:27.386Z,15.45
2022-09-28T23:51:54.221Z,15.56
2022-09-28T23:54:20.999Z,15.69
2022-09-28T23:56:47.768Z,15.70
2022-09-28T23:59:14.671Z,15.69
